Time;durP1;ratioP1;P1;durP2;ratioP2;P2;SDS_P1;SDS_P2;PMS_P1;PMS_P2;Temp;Humidity;BMP_temperature;BMP_pressure;BME280_temperature;BME280_humidity;BME280_pressure;Samples;Min_cycle;Max_cycle;Signal;HPM_P1;HPM_P2
2022/08/22 00:01:36;;;;;;;3.08;2.50;;;25.30;52.80;26.30;100764.00;;;;5038094;28;20175;-41
2022/08/22 00:04:32;;;;;;;3.70;2.40;;;25.30;52.80;26.30;100763.00;;;;5024424;28;20187;-40
2022/08/22 00:07:39;;;;;;;2.92;2.40;;;25.30;52.70;26.30;100765.00;;;;5040477;28;20159;-41
2022/08/22 00:10:19;;;;;;;3.20;2.30;;;25.30;52.90;26.30;100758.00;;;;5038045;28;20167;-40
2022/08/22 00:12:53;;;;;;;2.50;2.30;;;25.30;52.80;26.30;100767.00;;;;5023733;28;20232;-39
2022/08/22 00:15:58;;;;;;;3.97;2.28;;;25.30;52.80;26.30;100776.00;;;;5040184;28;20241;-40
2022/08/22 00:18:49;;;;;;;3.03;2.50;;;25.30;52.80;26.20;100754.00;;;;5038232;28;20669;-42
2022/08/22 00:21:30;;;;;;;3.15;2.30;;;25.30;53.00;26.20;100776.00;;;;5039214;28;20159;-40
2022/08/22 00:24:17;;;;;;;2.58;2.28;;;25.30;53.00;26.20;100769.00;;;;5025187;28;20214;-40
2022/08/22 00:26:50;;;;;;;4.63;2.40;;;25.20;52.90;26.20;100774.00;;;;5025478;28;20174;-40
2022/08/22 00:29:25;;;;;;;3.63;2.88;;;25.30;52.90;26.20;100774.00;;;;5039429;28;20238;-41
2022/08/22 00:32:19;;;;;;;3.40;2.35;;;25.30;53.00;26.20;100767.00;;;;5039311;28;20213;-41
2022/08/22 00:34:58;;;;;;;3.20;2.30;;;25.30;53.00;26.20;100769.00;;;;5038641;28;20629;-40
2022/08/22 00:37:36;;;;;;;2.67;2.30;;;25.30;52.90;26.20;100770.00;;;;5023659;28;20198;-41
2022/08/22 00:40:35;;;;;;;3.33;2.40;;;25.20;52.90;26.10;100690.00;;;;5039573;28;20217;-41
2022/08/22 00:43:58;;;;;;;3.28;2.35;;;25.20;52.90;26.10;100765.00;;;;5039899;28;20201;-41
2022/08/22 00:47:23;;;;;;;3.92;2.55;;;25.20;53.00;26.10;100770.00;;;;5024082;28;20221;-40
2022/08/22 00:50:43;;;;;;;2.53;2.33;;;25.20;53.00;26.00;100773.00;;;;5021646;28;20191;-40
2022/08/22 00:53:41;;;;;;;3.20;2.47;;;25.20;53.00;26.00;100766.00;;;;5002309;28;20187;-40
2022/08/22 00:56:41;;;;;;;3.00;2.40;;;25.10;53.00;26.00;100759.00;;;;5040073;28;20497;-40
2022/08/22 00:59:22;;;;;;;3.90;2.70;;;25.10;53.10;26.00;100767.00;;;;5023501;28;20187;-42
2022/08/22 01:02:00;;;;;;;3.85;2.80;;;25.10;53.10;26.00;100775.00;;;;5039902;28;20155;-40
2022/08/22 01:04:56;;;;;;;2.90;2.50;;;25.10;53.00;26.00;100775.00;;;;5025200;28;20191;-40
2022/08/22 01:07:58;;;;;;;3.50;2.53;;;25.10;53.00;25.90;100773.00;;;;5037208;28;20602;-40
2022/08/22 01:10:44;;;;;;;2.60;2.40;;;25.00;52.90;25.90;100779.00;;;;5036418;28;20589;-39
2022/08/22 01:13:23;;;;;;;3.00;2.33;;;25.10;53.10;25.90;100775.00;;;;5024982;28;20147;-39
2022/08/22 01:15:52;;;;;;;3.47;2.30;;;25.10;53.00;25.90;100765.00;;;;5024998;28;20175;-42
2022/08/22 01:18:36;;;;;;;3.45;2.40;;;25.00;53.00;25.90;100769.00;;;;5039308;28;20261;-41
2022/08/22 01:21:59;;;;;;;3.78;2.72;;;25.00;53.20;25.90;100773.00;;;;5024976;28;20151;-40
2022/08/22 01:28:01;;;;;;;3.30;2.45;;;25.00;53.20;25.80;100768.00;;;;5024302;28;20241;-39
2022/08/22 01:31:18;;;;;;;2.85;2.30;;;25.00;53.30;25.80;100787.00;;;;5025194;28;20217;-39
2022/08/22 01:34:27;;;;;;;2.40;2.20;;;25.00;53.30;25.70;100760.00;;;;5035548;28;20811;-40
2022/08/22 01:37:33;;;;;;;3.97;2.65;;;24.90;53.30;25.70;100768.00;;;;5036847;28;20165;-40
2022/08/22 01:40:36;;;;;;;2.97;2.35;;;25.00;53.30;25.70;100768.00;;;;5024665;28;20221;-39
2022/08/22 01:43:41;;;;;;;3.30;2.30;;;24.90;53.30;25.70;100762.00;;;;5024292;28;20191;-40
2022/08/22 01:46:50;;;;;;;2.85;2.50;;;24.90;53.30;25.70;100766.00;;;;5030830;28;20199;-41
2022/08/22 01:49:20;;;;;;;3.47;2.53;;;25.00;53.40;25.70;100759.00;;;;5039284;28;20664;-39
2022/08/22 01:52:11;;;;;;;3.13;2.47;;;24.90;53.40;25.60;100758.00;;;;5027132;28;20159;-40
2022/08/22 01:54:53;;;;;;;2.53;2.33;;;24.90;53.50;25.60;100761.00;;;;5039955;28;20190;-39
2022/08/22 01:57:20;;;;;;;2.53;2.30;;;24.90;53.50;25.60;100764.00;;;;5042168;28;20236;-40
2022/08/22 01:59:51;;;;;;;3.53;2.40;;;24.90;53.50;25.60;100756.00;;;;5043657;28;20167;-40
2022/08/22 02:03:12;;;;;;;3.78;2.70;;;24.90;53.50;25.60;100755.00;;;;5042520;28;20178;-41
2022/08/22 02:05:47;;;;;;;2.85;2.30;;;24.80;53.40;25.30;100753.00;;;;5040028;28;20199;-40
2022/08/22 02:08:49;;;;;;;2.88;2.35;;;24.80;53.40;25.60;100746.00;;;;5041512;28;20200;-40
2022/08/22 02:11:43;;;;;;;3.13;2.30;;;24.80;53.40;25.50;100746.00;;;;5026596;28;20617;-39
2022/08/22 02:14:31;;;;;;;2.50;2.30;;;24.80;53.50;25.50;100760.00;;;;5042405;28;20645;-41
2022/08/22 02:17:19;;;;;;;2.40;2.20;;;24.70;53.30;25.50;100749.00;;;;5027551;28;20171;-41
2022/08/22 02:19:58;;;;;;;2.40;2.20;;;24.70;54.00;25.50;100756.00;;;;5041078;28;20241;-41
2022/08/22 02:22:52;;;;;;;2.88;2.40;;;24.70;53.40;25.50;100749.00;;;;5042339;28;20177;-40
2022/08/22 02:25:24;;;;;;;3.00;2.40;;;24.70;53.40;25.40;100744.00;;;;5026187;28;20209;-40
2022/08/22 02:28:12;;;;;;;3.43;2.40;;;24.70;53.50;25.40;100753.00;;;;5026663;28;20195;-39
2022/08/22 02:31:05;;;;;;;2.40;2.20;;;24.70;53.50;25.40;100728.00;;;;5040064;28;20152;-41
2022/08/22 02:33:41;;;;;;;2.83;2.50;;;24.70;53.50;25.40;100742.00;;;;5040511;28;20174;-41
2022/08/22 02:36:31;;;;;;;3.05;2.30;;;24.70;53.60;25.40;100735.00;;;;5042406;28;20571;-39
2022/08/22 02:39:21;;;;;;;4.03;2.67;;;24.70;53.60;25.40;100715.00;;;;5040750;28;20256;-42
2022/08/22 02:42:02;;;;;;;3.83;2.40;;;24.70;53.70;25.30;100732.00;;;;5040200;28;20643;-40
2022/08/22 02:44:38;;;;;;;2.67;2.20;;;24.60;53.70;25.30;100719.00;;;;5041935;28;20648;-40
2022/08/22 02:47:28;;;;;;;2.90;2.40;;;24.60;53.60;25.30;100720.00;;;;5041095;28;20155;-42
2022/08/22 02:50:16;;;;;;;3.45;2.50;;;24.50;53.50;25.30;100729.00;;;;5027211;28;20160;-39
2022/08/22 02:53:34;;;;;;;2.95;2.40;;;24.50;53.50;25.30;100721.00;;;;5027098;28;20163;-40
2022/08/22 02:56:09;;;;;;;3.67;2.50;;;24.50;53.60;25.20;100726.00;;;;4997754;28;20266;-42
2022/08/22 02:59:11;;;;;;;2.70;2.50;;;24.50;53.50;25.20;100725.00;;;;5041181;28;20668;-39
2022/08/22 03:01:40;;;;;;;3.27;2.53;;;24.50;53.50;25.20;100724.00;;;;5025760;28;20154;-40
2022/08/22 03:04:23;;;;;;;3.73;2.70;;;24.50;53.50;25.20;100726.00;;;;5026913;28;20250;-40
2022/08/22 03:07:10;;;;;;;3.23;2.33;;;24.40;53.50;25.20;100732.00;;;;5027029;28;20648;-41
2022/08/22 03:09:50;;;;;;;3.85;2.50;;;24.40;53.80;25.20;100723.00;;;;5027645;28;20648;-41
2022/08/22 03:12:30;;;;;;;3.77;2.70;;;24.50;53.70;25.10;100697.00;;;;5041661;28;20637;-40
2022/08/22 03:15:25;;;;;;;4.95;2.40;;;24.40;53.80;25.10;100713.00;;;;5040264;28;20167;-40
2022/08/22 03:18:21;;;;;;;4.07;2.80;;;24.40;53.80;25.10;100709.00;;;;5040054;28;20218;-39
2022/08/22 03:21:24;;;;;;;4.63;2.70;;;24.40;53.80;25.10;100714.00;;;;5035761;28;20187;-40
2022/08/22 03:24:30;;;;;;;5.37;2.67;;;24.40;53.80;25.10;100719.00;;;;5019442;28;20211;-40
2022/08/22 03:27:10;;;;;;;4.47;2.40;;;24.40;53.80;25.10;100719.00;;;;5021256;28;20220;-40
2022/08/22 03:29:42;;;;;;;3.30;2.50;;;24.40;53.80;25.10;100720.00;;;;5020921;28;20254;-41
2022/08/22 03:32:22;;;;;;;9.00;8.20;;;24.30;53.80;25.10;100710.00;;;;5004320;28;20210;-40
2022/08/22 03:35:01;;;;;;;3.33;2.83;;;24.30;53.70;25.10;100716.00;;;;5020349;28;20266;-41
2022/08/22 03:37:39;;;;;;;3.37;2.90;;;24.30;53.70;25.00;100711.00;;;;5020781;28;20256;-40
2022/08/22 03:40:31;;;;;;;4.70;2.85;;;24.30;53.70;25.00;100698.00;;;;5005918;28;20190;-41
2022/08/22 03:43:38;;;;;;;2.80;2.50;;;24.30;53.70;25.00;100711.00;;;;5004844;28;20658;-40
2022/08/22 03:46:18;;;;;;;3.37;2.60;;;24.30;53.80;24.90;100703.00;;;;5019945;28;20305;-40
2022/08/22 03:49:30;;;;;;;3.70;2.63;;;24.20;53.70;24.90;100701.00;;;;5005340;28;20191;-40
2022/08/22 03:52:12;;;;;;;3.67;2.53;;;24.30;53.70;24.90;100707.00;;;;5005639;28;20179;-40
2022/08/22 03:55:02;;;;;;;4.57;2.70;;;24.20;53.70;24.90;100698.00;;;;5020400;28;20585;-40
2022/08/22 03:57:53;;;;;;;4.97;2.70;;;24.20;53.70;24.90;100689.00;;;;5018721;28;20148;-40
2022/08/22 04:00:52;;;;;;;3.57;2.20;;;24.20;53.70;24.90;100705.00;;;;5019127;28;20253;-41
2022/08/22 04:03:34;;;;;;;2.73;2.50;;;24.20;53.80;24.80;100701.00;;;;5021792;28;20598;-41
2022/08/22 04:06:26;;;;;;;2.60;2.40;;;24.20;53.70;24.80;100704.00;;;;5021824;28;20172;-41
2022/08/22 04:09:24;;;;;;;3.67;2.60;;;24.10;53.60;24.80;100694.00;;;;5022029;28;20199;-40
2022/08/22 04:12:17;;;;;;;4.17;2.50;;;24.10;53.70;24.80;100700.00;;;;5003221;28;20174;-40
2022/08/22 04:15:30;;;;;;;4.80;2.73;;;24.10;53.90;24.80;100697.00;;;;5006809;28;20164;-40
2022/08/22 04:19:06;;;;;;;3.23;2.70;;;24.10;54.10;24.80;100709.00;;;;5021768;28;20187;-40
2022/08/22 04:21:57;;;;;;;4.30;2.60;;;24.10;54.20;24.70;100707.00;;;;5004637;28;20183;-40
2022/08/22 04:24:38;;;;;;;3.77;2.63;;;24.10;54.10;24.70;100706.00;;;;5019165;28;20287;-40
2022/08/22 04:27:21;;;;;;;3.40;2.70;;;24.10;54.00;24.70;100708.00;;;;5006620;28;20159;-40
2022/08/22 04:30:17;;;;;;;4.57;2.60;;;24.10;54.10;24.70;100712.00;;;;5020502;28;20262;-40
2022/08/22 04:32:45;;;;;;;3.80;2.67;;;24.00;54.00;24.70;100707.00;;;;5006504;28;20202;-40
2022/08/22 04:35:26;;;;;;;3.23;2.60;;;24.00;54.00;24.60;100706.00;;;;5021581;28;20168;-40
2022/08/22 04:38:36;;;;;;;2.50;2.30;;;24.00;53.90;24.60;100706.00;;;;5020406;28;20229;-40
2022/08/22 04:41:24;;;;;;;3.17;2.70;;;24.00;54.10;24.60;100696.00;;;;5006391;28;20229;-40
2022/08/22 04:44:05;;;;;;;2.97;2.60;;;23.90;54.30;24.60;100700.00;;;;5019861;28;20196;-40
2022/08/22 04:46:44;;;;;;;5.10;2.90;;;23.90;54.60;24.60;100699.00;;;;5006111;28;20177;-40
2022/08/22 04:49:34;;;;;;;3.43;2.60;;;23.80;54.60;24.60;100703.00;;;;5022503;28;20813;-41
2022/08/22 04:52:26;;;;;;;3.70;2.50;;;23.90;54.60;24.50;100701.00;;;;5020724;28;20159;-40
2022/08/22 04:55:28;;;;;;;4.13;2.63;;;23.90;54.20;24.50;100708.00;;;;5004578;28;20851;-40
2022/08/22 04:58:15;;;;;;;3.60;2.70;;;23.90;54.20;24.50;100703.00;;;;5018373;28;20214;-38
2022/08/22 05:00:57;;;;;;;7.10;5.37;;;23.80;54.30;24.50;100700.00;;;;5005230;28;20174;-37
2022/08/22 05:03:25;;;;;;;4.33;3.03;;;23.80;54.60;24.50;100697.00;;;;5018774;28;20160;-39
2022/08/22 05:05:51;;;;;;;4.20;2.90;;;23.80;55.00;24.50;100708.00;;;;5020174;28;20223;-39
2022/08/22 05:08:22;;;;;;;3.80;2.90;;;23.70;54.70;24.50;100700.00;;;;5020117;28;20184;-40
2022/08/22 05:10:47;;;;;;;4.27;2.90;;;23.80;55.10;24.50;100714.00;;;;5003795;28;20271;-39
2022/08/22 05:13:38;;;;;;;5.93;2.87;;;23.80;54.80;24.50;100709.00;;;;5020268;28;20250;-40
2022/08/22 05:16:13;;;;;;;3.97;2.70;;;23.80;54.90;24.40;100707.00;;;;5020457;28;20186;-39
2022/08/22 05:18:48;;;;;;;3.17;2.87;;;23.80;55.30;24.40;100729.00;;;;5003400;28;20187;-38
2022/08/22 05:21:14;;;;;;;4.40;2.60;;;23.80;54.70;24.20;100721.00;;;;5021005;28;20156;-41
2022/08/22 05:23:49;;;;;;;3.27;2.80;;;23.70;54.70;24.40;100722.00;;;;5006478;28;20199;-39
2022/08/22 05:26:14;;;;;;;4.33;2.97;;;23.70;54.80;24.40;100728.00;;;;5023960;28;20156;-40
2022/08/22 05:28:50;;;;;;;3.57;2.80;;;23.70;54.60;24.40;100726.00;;;;5023739;28;20671;-40
2022/08/22 05:31:30;;;;;;;3.50;2.60;;;23.70;54.50;24.20;100718.00;;;;5009104;28;20698;-39
2022/08/22 05:34:06;;;;;;;2.90;2.60;;;23.70;54.50;24.30;100731.00;;;;5024405;28;20183;-40
2022/08/22 05:36:37;;;;;;;3.70;2.93;;;23.70;54.60;24.30;100728.00;;;;5024020;28;20175;-39
2022/08/22 05:39:19;;;;;;;3.47;2.70;;;23.70;54.60;24.30;100734.00;;;;5023428;28;20204;-40
2022/08/22 05:41:45;;;;;;;4.47;3.10;;;23.60;54.80;24.30;100727.00;;;;5023245;28;20179;-39
2022/08/22 05:44:20;;;;;;;3.20;2.70;;;23.70;55.20;24.30;100723.00;;;;5024450;28;20196;-41
2022/08/22 05:46:55;;;;;;;3.30;2.60;;;23.60;54.80;24.30;100733.00;;;;5007606;28;20187;-39
2022/08/22 05:50:00;;;;;;;3.70;2.77;;;23.60;54.80;24.30;100727.00;;;;5023130;28;20198;-39
2022/08/22 05:52:43;;;;;;;3.23;2.77;;;23.60;55.20;24.30;100731.00;;;;4986284;28;20176;-40
2022/08/22 05:55:36;;;;;;;3.30;3.00;;;23.60;55.00;24.30;100735.00;;;;5005055;28;20184;-39
2022/08/22 05:58:19;;;;;;;3.10;2.67;;;23.60;55.00;24.20;100732.00;;;;5008720;28;20303;-40
2022/08/22 06:00:49;;;;;;;3.40;2.53;;;23.60;55.20;24.20;100724.00;;;;5022076;28;20187;-40
2022/08/22 06:03:23;;;;;;;3.80;2.80;;;23.60;55.30;24.20;100730.00;;;;5007346;28;20183;-40
2022/08/22 06:05:50;;;;;;;2.83;2.63;;;23.60;55.40;24.20;100733.00;;;;5022874;28;20191;-39
2022/08/22 06:08:25;;;;;;;3.17;2.70;;;23.50;55.30;24.20;100727.00;;;;5023269;28;20200;-39
2022/08/22 06:10:56;;;;;;;3.33;2.63;;;23.60;55.30;24.20;100734.00;;;;5022856;28;20171;-40
2022/08/22 06:13:33;;;;;;;2.63;2.43;;;23.60;55.50;24.20;100724.00;;;;5006695;28;20239;-39
2022/08/22 06:16:27;;;;;;;5.03;3.07;;;23.50;55.20;24.10;100748.00;;;;5023272;28;20171;-39
2022/08/22 06:18:53;;;;;;;3.57;2.87;;;23.60;55.60;24.10;100742.00;;;;5005029;28;20199;-39
2022/08/22 06:21:36;;;;;;;4.07;2.80;;;23.40;55.50;24.10;100744.00;;;;5023257;28;20180;-41
2022/08/22 06:24:04;;;;;;;4.77;2.97;;;23.40;55.80;24.10;100752.00;;;;5006845;28;20884;-40
2022/08/22 06:26:37;;;;;;;4.23;3.07;;;23.40;55.90;24.10;100754.00;;;;5006623;28;20180;-40
2022/08/22 06:29:03;;;;;;;5.13;2.90;;;23.50;55.90;24.10;100759.00;;;;5022513;28;20274;-41
2022/08/22 06:31:41;;;;;;;3.67;3.10;;;23.40;55.90;24.10;100751.00;;;;5006388;28;20171;-40
2022/08/22 06:34:17;;;;;;;4.07;2.80;;;23.50;56.20;24.10;100770.00;;;;5005185;28;20712;-41
2022/08/22 06:36:47;;;;;;;6.67;3.00;;;23.40;56.00;24.10;100766.00;;;;5023067;28;20612;-40
2022/08/22 06:39:24;;;;;;;4.53;3.00;;;23.40;56.10;24.00;100763.00;;;;5006721;28;20737;-39
2022/08/22 06:41:56;;;;;;;6.87;2.90;;;23.40;56.20;24.00;100771.00;;;;5007811;28;20254;-40
2022/08/22 06:44:26;;;;;;;5.60;3.10;;;23.30;56.20;24.00;100754.00;;;;5022277;28;20287;-40
2022/08/22 06:46:56;;;;;;;3.17;2.70;;;23.30;56.40;24.00;100758.00;;;;5022169;28;20188;-41
2022/08/22 06:49:22;;;;;;;3.50;2.57;;;23.20;56.30;24.00;100762.00;;;;5022136;28;20191;-40
2022/08/22 06:51:47;;;;;;;4.67;2.77;;;23.20;56.30;23.90;100768.00;;;;5022329;28;20853;-41
2022/08/22 06:54:22;;;;;;;3.13;2.60;;;23.20;56.40;23.90;100761.00;;;;5022998;28;20182;-40
2022/08/22 06:56:50;;;;;;;4.10;2.90;;;23.20;56.50;23.90;100768.00;;;;5022471;28;20179;-40
2022/08/22 06:59:20;;;;;;;3.27;2.77;;;23.20;56.50;24.00;100762.00;;;;5006523;28;20199;-41
2022/08/22 07:02:22;;;;;;;3.87;2.83;;;23.20;56.60;24.00;100757.00;;;;5022832;28;20347;-47
2022/08/22 07:04:48;;;;;;;3.07;2.77;;;23.30;56.60;24.00;100756.00;;;;5005539;28;20218;-39
2022/08/22 07:07:17;;;;;;;4.00;3.10;;;23.30;56.60;24.00;100753.00;;;;4975312;28;20175;-39
2022/08/22 07:09:43;;;;;;;3.33;2.80;;;23.30;56.60;24.00;100755.00;;;;5026344;28;20246;-38
2022/08/22 07:12:15;;;;;;;4.80;2.93;;;23.30;56.70;23.80;100742.00;;;;4994324;28;20192;-40
2022/08/22 07:14:43;;;;;;;3.13;2.63;;;23.30;56.60;24.00;100744.00;;;;5028897;28;20168;-40
2022/08/22 07:17:17;;;;;;;3.63;2.90;;;23.30;56.60;24.00;100739.00;;;;5028467;28;20198;-40
2022/08/22 07:20:26;;;;;;;6.37;3.00;;;23.30;56.60;23.80;100738.00;;;;5028852;28;20195;-40
2022/08/22 07:23:08;;;;;;;11.30;3.20;;;23.40;56.80;24.00;100746.00;;;;5045154;28;20190;-40
2022/08/22 07:26:21;;;;;;;7.27;2.97;;;23.40;57.30;24.00;100750.00;;;;5017899;28;20319;-39
2022/08/22 07:29:07;;;;;;;5.10;3.50;;;23.40;57.10;24.00;100747.00;;;;4939523;29;20236;-40
2022/08/22 07:31:52;;;;;;;5.07;3.20;;;23.30;57.40;24.00;100754.00;;;;5023597;28;20176;-40
2022/08/22 07:34:40;;;;;;;4.27;3.20;;;23.30;57.90;23.90;100751.00;;;;5023696;28;20607;-40
2022/08/22 07:37:19;;;;;;;4.03;2.87;;;23.20;58.10;23.90;100741.00;;;;5009678;28;20181;-40
2022/08/22 07:39:52;;;;;;;5.37;3.10;;;23.20;58.00;23.90;100750.00;;;;5024123;28;20191;-40
2022/08/22 07:42:27;;;;;;;5.60;3.07;;;23.20;57.90;23.90;100751.00;;;;5024893;28;20766;-40
2022/08/22 07:45:25;;;;;;;6.20;3.00;;;23.20;58.00;23.90;100745.00;;;;5038751;28;20569;-41
2022/08/22 07:48:15;;;;;;;3.63;2.73;;;23.20;58.10;23.90;100755.00;;;;5042773;28;20183;-40
2022/08/22 07:51:07;;;;;;;5.70;3.67;;;23.20;58.50;23.90;100756.00;;;;5029938;28;20183;-41
2022/08/22 07:53:58;;;;;;;4.47;2.87;;;23.20;58.60;23.90;100758.00;;;;5022878;28;20198;-40
2022/08/22 07:56:45;;;;;;;5.07;2.97;;;23.10;58.60;23.80;100749.00;;;;5041860;28;20167;-40
2022/08/22 07:59:17;;;;;;;5.20;3.10;;;23.10;59.00;23.80;100764.00;;;;5043226;28;20191;-41
2022/08/22 08:01:57;;;;;;;4.63;2.90;;;23.10;59.20;23.80;100750.00;;;;5024309;28;20183;-41
2022/08/22 08:04:28;;;;;;;4.33;2.73;;;23.10;59.20;23.80;100748.00;;;;4979430;28;20274;-40
2022/08/22 08:06:59;;;;;;;3.90;2.77;;;23.20;58.90;23.80;100743.00;;;;4960909;28;20238;-40
2022/08/22 08:09:37;;;;;;;5.20;3.00;;;23.30;58.90;23.90;100757.00;;;;5028864;28;20199;-39
2022/08/22 08:12:04;;;;;;;3.40;2.57;;;23.40;59.00;23.90;100751.00;;;;5012157;28;20159;-40
2022/08/22 08:14:30;;;;;;;5.60;3.30;;;23.40;59.00;24.00;100749.00;;;;5011750;28;20179;-39
2022/08/22 08:17:05;;;;;;;6.30;2.93;;;23.40;58.90;24.00;100741.00;;;;5044086;28;20668;-40
2022/08/22 08:19:33;;;;;;;3.67;2.87;;;23.40;59.00;24.00;100741.00;;;;5043887;28;20209;-40
2022/08/22 08:21:59;;;;;;;5.30;3.20;;;23.40;59.10;24.00;100741.00;;;;5027874;28;20559;-39
2022/08/22 08:24:35;;;;;;;5.23;3.33;;;23.40;59.10;24.00;100737.00;;;;5044172;28;20206;-41
2022/08/22 08:29:55;;;;;;;4.40;3.07;;;23.40;59.40;24.10;100717.00;;;;5027904;28;20197;-40
2022/08/22 08:32:29;;;;;;;5.77;3.40;;;23.40;59.00;24.10;100723.00;;;;5027782;28;20179;-40
2022/08/22 08:34:54;;;;;;;4.63;3.03;;;23.50;58.90;24.10;100719.00;;;;5027786;28;20217;-40
2022/08/22 08:37:28;;;;;;;4.80;3.10;;;23.50;57.90;24.10;100721.00;;;;5021158;28;20639;-40
2022/08/22 08:39:56;;;;;;;4.43;2.70;;;23.40;57.90;24.10;100709.00;;;;5008487;28;20254;-41
2022/08/22 08:46:09;;;;;;;4.63;2.63;;;23.50;56.70;24.10;100710.00;;;;5009055;28;20353;-40
2022/08/22 08:49:14;;;;;;;4.00;2.47;;;23.50;57.40;24.10;100651.00;;;;5008759;28;20211;-40
2022/08/22 08:52:11;;;;;;;3.43;2.40;;;23.50;57.00;24.10;100714.00;;;;5008469;28;20571;-39
2022/08/22 08:55:17;;;;;;;4.10;2.60;;;23.60;56.80;24.10;100715.00;;;;5008896;28;20175;-40
2022/08/22 08:58:25;;;;;;;4.23;2.67;;;23.50;56.80;24.10;100701.00;;;;5008083;28;20622;-39
2022/08/22 09:01:25;;;;;;;3.80;2.30;;;23.60;55.70;24.10;100703.00;;;;5012178;28;20182;-41
2022/08/22 09:04:06;;;;;;;2.80;2.50;;;23.60;54.90;24.10;100696.00;;;;5012265;28;20190;-41
2022/08/22 09:07:15;;;;;;;3.27;2.30;;;23.60;55.30;24.10;100695.00;;;;5011964;28;20560;-39
2022/08/22 09:10:22;;;;;;;5.00;2.40;;;23.60;54.90;24.20;100681.00;;;;5009492;28;20278;-38
2022/08/22 09:13:12;;;;;;;3.07;2.17;;;23.70;54.70;24.20;100683.00;;;;5012533;28;20854;-39
2022/08/22 09:16:14;;;;;;;3.47;2.50;;;23.60;53.40;24.20;100683.00;;;;5011806;28;20796;-39
2022/08/22 09:19:35;;;;;;;3.70;2.13;;;23.60;53.20;24.20;100689.00;;;;5011497;28;20207;-39
2022/08/22 09:22:11;;;;;;;3.23;2.20;;;23.70;54.50;24.20;100663.00;;;;5010663;28;20179;-40
2022/08/22 09:25:10;;;;;;;4.47;2.40;;;23.80;52.40;24.30;100683.00;;;;5012963;28;20202;-39
2022/08/22 09:27:51;;;;;;;4.47;2.30;;;23.80;52.60;24.30;100681.00;;;;5011236;28;20204;-40
2022/08/22 09:30:19;;;;;;;3.60;2.23;;;23.80;52.30;24.30;100681.00;;;;5012638;28;20183;-40
2022/08/22 09:32:59;;;;;;;3.27;2.10;;;23.80;51.80;24.30;100672.00;;;;4995084;28;20203;-40
2022/08/22 09:35:42;;;;;;;3.27;2.20;;;23.90;52.10;24.40;100675.00;;;;5027879;28;20159;-40
2022/08/22 09:38:40;;;;;;;3.63;2.20;;;23.90;52.50;24.40;100666.00;;;;5012137;28;20278;-40
2022/08/22 09:41:39;;;;;;;2.97;2.30;;;23.90;52.60;24.40;100668.00;;;;5027850;28;20167;-40
2022/08/22 09:44:46;;;;;;;3.30;2.30;;;23.90;52.70;24.40;100667.00;;;;5011067;28;20565;-39
2022/08/22 09:47:38;;;;;;;5.50;2.20;;;24.00;52.80;24.40;100658.00;;;;5011827;28;20183;-39
2022/08/22 09:50:26;;;;;;;3.03;2.30;;;24.00;51.40;24.50;100658.00;;;;4983650;28;20175;-38
2022/08/22 09:53:28;;;;;;;3.13;2.10;;;24.00;51.90;24.50;100648.00;;;;5046028;28;20254;-39
2022/08/22 09:56:25;;;;;;;4.23;2.53;;;24.00;52.50;24.50;100646.00;;;;5011925;28;20171;-39
2022/08/22 09:59:23;;;;;;;3.20;2.40;;;24.10;52.30;24.50;100657.00;;;;4996226;28;20192;-39
2022/08/22 10:02:34;;;;;;;3.43;2.30;;;24.10;53.60;24.60;100650.00;;;;5010238;28;20172;-40
2022/08/22 10:05:02;;;;;;;6.07;2.63;;;24.10;52.50;24.60;100648.00;;;;4996784;28;20210;-43
2022/08/22 10:07:55;;;;;;;9.33;2.60;;;24.20;55.10;24.60;100647.00;;;;5025537;28;20186;-45
2022/08/22 10:11:10;;;;;;;4.03;2.23;;;24.20;55.40;24.70;100647.00;;;;5029572;28;20650;-43
2022/08/22 10:14:03;;;;;;;7.13;2.30;;;24.20;55.40;24.70;100649.00;;;;5011561;28;20179;-43
2022/08/22 10:16:56;;;;;;;3.00;2.30;;;24.20;56.10;24.70;100656.00;;;;5023825;28;20191;-43
2022/08/22 10:19:26;;;;;;;2.77;2.30;;;24.20;56.50;24.70;100652.00;;;;5024068;28;20205;-42
2022/08/22 10:23:08;;;;;;;3.13;2.50;;;24.20;56.20;24.80;100641.00;;;;5012022;28;20172;-44
2022/08/22 10:25:36;;;;;;;4.90;2.30;;;24.30;55.90;24.80;100646.00;;;;4952055;29;20229;-44
2022/08/22 10:28:30;;;;;;;2.63;2.17;;;24.30;56.70;24.80;100645.00;;;;4951141;29;20205;-44
2022/08/22 10:31:53;;;;;;;3.87;2.50;;;24.40;56.80;24.90;100642.00;;;;4990703;28;20191;-44
2022/08/22 10:34:27;;;;;;;2.77;2.40;;;24.40;56.90;24.90;100637.00;;;;5026492;28;20162;-43
2022/08/22 10:37:03;;;;;;;2.63;2.20;;;24.40;56.30;24.90;100618.00;;;;5026450;28;20159;-44
2022/08/22 10:40:04;;;;;;;5.93;2.53;;;24.40;56.70;24.90;100628.00;;;;5025861;28;20253;-44
2022/08/22 10:42:40;;;;;;;2.87;2.37;;;24.40;56.70;24.90;100627.00;;;;5024589;28;20164;-44
2022/08/22 10:45:59;;;;;;;3.27;2.50;;;24.50;57.10;25.00;100628.00;;;;5026022;28;20207;-45
2022/08/22 10:48:46;;;;;;;2.30;2.10;;;24.50;57.10;25.00;100631.00;;;;5011252;28;20238;-44
2022/08/22 10:51:43;;;;;;;2.60;2.40;;;24.50;57.00;25.00;100642.00;;;;5025006;28;20182;-43
2022/08/22 10:54:37;;;;;;;4.47;2.40;;;24.50;56.80;25.10;100625.00;;;;5016527;28;20194;-43
2022/08/22 10:57:26;;;;;;;3.53;2.43;;;24.60;57.30;25.10;100630.00;;;;5010893;28;20490;-42
2022/08/22 11:00:13;;;;;;;2.50;2.20;;;24.60;57.60;25.10;100624.00;;;;5010469;28;20172;-43
2022/08/22 11:02:59;;;;;;;2.63;2.40;;;24.70;57.30;25.20;100629.00;;;;5024481;28;20187;-43
2022/08/22 11:05:45;;;;;;;3.33;2.37;;;24.70;57.10;25.20;100620.00;;;;5014256;28;20188;-46
2022/08/22 11:08:31;;;;;;;2.53;2.20;;;24.70;57.20;25.20;100631.00;;;;5034227;28;20257;-45
2022/08/22 11:11:13;;;;;;;2.90;2.20;;;24.70;56.60;25.20;100629.00;;;;5035614;28;20168;-44
2022/08/22 11:14:07;;;;;;;3.00;2.40;;;24.70;56.30;25.30;100624.00;;;;5025998;28;20172;-47
2022/08/22 11:17:01;;;;;;;3.07;2.40;;;24.70;55.20;25.30;100620.00;;;;5025002;28;20158;-44
2022/08/22 11:19:54;;;;;;;2.50;2.30;;;24.70;55.80;25.30;100608.00;;;;5010105;28;20188;-44
2022/08/22 11:22:20;;;;;;;3.10;2.37;;;24.80;56.10;25.30;100608.00;;;;5009488;28;20160;-44
2022/08/22 11:24:51;;;;;;;3.23;2.30;;;24.80;56.90;25.40;100607.00;;;;5010451;28;20206;-44
2022/08/22 11:27:45;;;;;;;3.63;2.50;;;24.90;56.40;25.40;100621.00;;;;5010505;28;20612;-44
2022/08/22 11:30:17;;;;;;;2.50;2.30;;;24.90;56.40;25.40;100607.00;;;;5023653;28;20160;-44
2022/08/22 11:33:05;;;;;;;3.73;2.60;;;24.90;56.90;25.50;100614.00;;;;4967988;28;20181;-45
2022/08/22 11:35:41;;;;;;;2.83;2.40;;;25.00;56.00;25.50;100606.00;;;;5044342;28;20213;-42
2022/08/22 11:39:04;;;;;;;2.87;2.47;;;25.00;55.70;25.50;100602.00;;;;5039933;28;20780;-44
2022/08/22 11:41:41;;;;;;;2.65;2.45;;;25.00;55.90;25.50;100601.00;;;;5009414;28;20191;-44
2022/08/22 11:44:32;;;;;;;3.43;2.40;;;25.00;56.70;25.60;100604.00;;;;5025165;28;20219;-45
2022/08/22 11:47:00;;;;;;;2.50;2.30;;;25.10;56.20;25.60;100602.00;;;;5009325;28;20192;-45
2022/08/22 11:49:55;;;;;;;3.42;2.42;;;25.10;57.10;25.70;100599.00;;;;4992140;28;20222;-44
2022/08/22 11:52:51;;;;;;;3.97;2.70;;;25.10;57.10;25.70;100596.00;;;;5024947;28;20544;-46
2022/08/22 11:55:37;;;;;;;4.60;2.63;;;25.20;56.60;25.70;100586.00;;;;5024973;28;20184;-45
2022/08/22 11:58:23;;;;;;;5.00;2.50;;;25.20;56.90;25.70;100599.00;;;;5022798;28;20195;-46
2022/08/22 12:01:02;;;;;;;2.90;2.45;;;25.20;56.50;25.80;100592.00;;;;5024832;28;20164;-45
2022/08/22 12:03:50;;;;;;;3.08;2.38;;;25.20;56.40;25.80;100598.00;;;;5023209;28;20275;-45
2022/08/22 12:07:01;;;;;;;5.22;2.40;;;25.30;56.40;25.90;100591.00;;;;5022439;28;20183;-42
2022/08/22 12:09:43;;;;;;;3.00;2.42;;;25.30;56.70;25.90;100571.00;;;;5020556;28;20203;-45
2022/08/22 12:12:23;;;;;;;3.75;2.80;;;25.30;56.70;25.90;100586.00;;;;5023278;28;20171;-45
2022/08/22 12:15:16;;;;;;;2.65;2.45;;;25.40;56.10;25.90;100591.00;;;;5023945;28;20537;-45
2022/08/22 12:18:15;;;;;;;2.75;2.50;;;25.40;56.00;26.00;100579.00;;;;5020520;28;20220;-45
2022/08/22 12:20:53;;;;;;;2.45;2.25;;;25.40;56.20;26.00;100577.00;;;;5021084;28;20156;-44